createdAt,value
2018-03-28T00:00:52.316Z,28.08
2018-03-28T00:03:19.983Z,29.98
2018-03-28T00:05:47.535Z,33.42
2018-03-28T00:08:15.300Z,23.15
2018-03-28T00:10:42.873Z,33.42
2018-03-28T00:13:10.343Z,25.23
2018-03-28T00:15:38.600Z,25.48
2018-03-28T00:18:06.075Z,21.80
2018-03-28T00:20:33.739Z,22.75
2018-03-28T00:23:01.200Z,27.80
2018-03-28T00:25:28.743Z,26.98
2018-03-28T00:27:56.209Z,27.70
2018-03-28T00:30:23.836Z,34.13
2018-03-28T00:32:51.419Z,24.02
2018-03-28T00:35:18.878Z,24.10
2018-03-28T00:37:46.480Z,27.80
2018-03-28T00:40:13.946Z,25.20
2018-03-28T00:42:41.405Z,19.12
2018-03-28T00:45:09.013Z,27.33
2018-03-28T00:47:36.484Z,33.15
2018-03-28T00:50:04.262Z,29.12
2018-03-28T00:52:31.845Z,31.92
2018-03-28T00:54:59.456Z,29.40
2018-03-28T00:57:26.916Z,29.77
2018-03-28T00:59:54.380Z,32.88
2018-03-28T01:02:21.847Z,28.75
2018-03-28T01:04:49.340Z,31.80
2018-03-28T01:07:16.981Z,36.03
2018-03-28T01:09:44.520Z,38.15
2018-03-28T01:12:12.284Z,28.33
2018-03-28T01:14:39.997Z,34.03
2018-03-28T01:17:07.465Z,29.20
2018-03-28T01:19:34.923Z,36.90
2018-03-28T01:22:02.391Z,42.28
2018-03-28T01:24:29.964Z,46.20
2018-03-28T01:26:57.435Z,46.95
2018-03-28T01:29:24.905Z,52.67
2018-03-28T01:31:52.371Z,66.22
2018-03-28T01:34:20.892Z,49.47
2018-03-28T01:36:48.353Z,52.50
2018-03-28T01:39:15.815Z,51.55
2018-03-28T01:41:43.292Z,37.72
2018-03-28T01:44:10.757Z,46.70
2018-03-28T01:46:38.227Z,40.67
2018-03-28T01:49:05.863Z,55.08
2018-03-28T01:51:33.331Z,60.05
2018-03-28T01:54:00.796Z,50.88
2018-03-28T01:56:28.276Z,48.95
2018-03-28T01:58:55.744Z,58.63
2018-03-28T02:01:23.976Z,61.53
2018-03-28T02:03:51.662Z,57.60
2018-03-28T02:06:19.132Z,55.78
2018-03-28T02:08:46.887Z,49.53
2018-03-28T02:11:15.261Z,69.43
2018-03-28T02:13:42.720Z,53.22
2018-03-28T02:16:10.195Z,66.70
2018-03-28T02:18:37.948Z,64.07
2018-03-28T02:21:05.715Z,66.00
2018-03-28T02:23:33.388Z,76.47
2018-03-28T02:26:00.940Z,55.70
2018-03-28T02:28:28.734Z,51.08
2018-03-28T02:30:56.469Z,79.53
2018-03-28T02:33:23.932Z,61.28
2018-03-28T02:35:51.401Z,72.25
2018-03-28T02:38:18.870Z,52.15
2018-03-28T02:40:46.612Z,53.22
2018-03-28T02:43:14.076Z,69.15
2018-03-28T02:45:41.541Z,79.75
2018-03-28T02:48:09.289Z,69.53
2018-03-28T02:50:37.059Z,58.30
2018-03-28T02:53:04.536Z,67.50
2018-03-28T02:55:32.003Z,56.88
2018-03-28T02:57:59.460Z,62.42
2018-03-28T03:00:26.930Z,64.35
2018-03-28T03:02:54.654Z,74.07
2018-03-28T03:05:22.115Z,69.12
2018-03-28T03:07:49.582Z,58.58
2018-03-28T03:10:17.339Z,60.28
2018-03-28T03:12:44.792Z,79.82
2018-03-28T03:15:12.266Z,82.05
2018-03-28T03:17:40.009Z,66.75
2018-03-28T03:20:07.812Z,63.33
2018-03-28T03:22:35.282Z,85.22
2018-03-28T03:25:02.744Z,78.85
2018-03-28T03:27:30.266Z,66.22
2018-03-28T03:29:58.504Z,97.37
2018-03-28T03:32:26.040Z,61.58
2018-03-28T03:34:53.616Z,68.65
2018-03-28T03:37:21.811Z,60.83
2018-03-28T03:39:49.588Z,74.45
2018-03-28T03:42:17.048Z,69.80
2018-03-28T03:44:44.520Z,59.53
2018-03-28T03:47:12.172Z,58.67
2018-03-28T03:49:39.656Z,62.67
2018-03-28T03:52:07.121Z,65.10
2018-03-28T03:54:34.580Z,62.35
2018-03-28T03:57:02.101Z,60.95
2018-03-28T03:59:29.564Z,56.67
2018-03-28T04:01:57.477Z,63.13
2018-03-28T04:04:25.086Z,69.78
2018-03-28T04:06:52.543Z,63.75
2018-03-28T04:09:20.029Z,77.78
2018-03-28T04:11:47.764Z,70.68
2018-03-28T04:14:15.230Z,69.45
2018-03-28T04:16:42.721Z,61.85
2018-03-28T04:19:10.194Z,69.78
2018-03-28T04:21:37.672Z,83.07
2018-03-28T04:24:05.293Z,73.20
2018-03-28T04:26:32.767Z,72.07
2018-03-28T04:29:00.300Z,68.97
2018-03-28T04:31:27.772Z,72.18
2018-03-28T04:33:55.248Z,82.95
2018-03-28T04:36:22.707Z,75.35
2018-03-28T04:38:50.210Z,82.47
2018-03-28T04:41:17.694Z,72.32
2018-03-28T04:43:45.983Z,67.40
2018-03-28T04:46:13.605Z,60.80
2018-03-28T04:48:41.079Z,54.60
2018-03-28T04:51:08.555Z,72.53
2018-03-28T04:53:36.027Z,75.00
2018-03-28T04:56:03.512Z,61.17
2018-03-28T04:58:31.280Z,80.07
2018-03-28T05:00:58.740Z,69.05
2018-03-28T05:03:26.214Z,63.72
2018-03-28T05:05:53.704Z,64.45
2018-03-28T05:08:21.368Z,58.78
2018-03-28T05:10:48.823Z,60.92
2018-03-28T05:13:16.299Z,63.95
2018-03-28T05:15:43.852Z,86.78
2018-03-28T05:18:11.288Z,74.45
2018-03-28T05:20:38.756Z,76.95
2018-03-28T05:23:06.508Z,68.25
2018-03-28T05:25:33.971Z,81.50
2018-03-28T05:28:01.531Z,80.55
2018-03-28T05:30:29.185Z,86.85
2018-03-28T05:32:56.648Z,91.53
2018-03-28T05:35:24.403Z,91.03
2018-03-28T05:37:51.864Z,86.93
2018-03-28T05:40:19.328Z,66.22
2018-03-28T05:42:47.106Z,84.35
2018-03-28T05:45:14.543Z,98.75
2018-03-28T05:47:42.320Z,97.57
2018-03-28T05:50:09.783Z,81.72
2018-03-28T05:52:38.019Z,111.80
2018-03-28T05:55:05.504Z,89.65
2018-03-28T05:57:33.383Z,98.18
2018-03-28T06:00:00.849Z,106.78
2018-03-28T06:02:28.320Z,76.43
2018-03-28T06:04:55.772Z,82.57
2018-03-28T06:07:23.534Z,111.70
2018-03-28T06:09:51.187Z,85.60
2018-03-28T06:12:18.667Z,96.57
2018-03-28T06:14:46.191Z,89.35
2018-03-28T06:17:13.655Z,75.62
2018-03-28T06:19:41.124Z,84.30
2018-03-28T06:22:08.609Z,98.57
2018-03-28T06:24:36.341Z,116.78
2018-03-28T06:27:04.118Z,95.57
2018-03-28T06:29:31.677Z,93.22
2018-03-28T06:31:59.906Z,78.20
2018-03-28T06:34:27.396Z,69.65
2018-03-28T06:36:54.860Z,96.10
2018-03-28T06:39:22.624Z,64.50
2018-03-28T06:41:50.398Z,87.07
2018-03-28T06:44:18.082Z,82.28
2018-03-28T06:46:45.569Z,90.72
2018-03-28T06:49:13.083Z,71.70
2018-03-28T06:51:40.797Z,69.93
2018-03-28T06:54:08.247Z,93.00
2018-03-28T06:56:35.710Z,82.43
2018-03-28T06:59:03.230Z,71.18
2018-03-28T07:01:30.700Z,80.00
2018-03-28T07:03:58.183Z,62.33
2018-03-28T07:06:25.895Z,72.93
2018-03-28T07:08:53.652Z,63.42
2018-03-28T07:11:21.432Z,67.07
2018-03-28T07:13:49.084Z,53.42
2018-03-28T07:16:16.564Z,69.80
2018-03-28T07:18:44.043Z,66.40
2018-03-28T07:21:11.509Z,59.75
2018-03-28T07:23:38.967Z,63.80
2018-03-28T07:26:06.440Z,61.97
2018-03-28T07:28:33.913Z,73.80
2018-03-28T07:31:01.373Z,73.12
2018-03-28T07:33:28.850Z,60.33
2018-03-28T07:35:56.617Z,67.65
2018-03-28T07:38:24.096Z,49.72
2018-03-28T07:40:52.349Z,54.95
2018-03-28T07:43:19.810Z,69.95
2018-03-28T07:45:47.611Z,58.42
2018-03-28T07:48:15.097Z,70.65
2018-03-28T07:50:42.585Z,70.05
2018-03-28T07:53:10.333Z,62.20
2018-03-28T07:55:37.799Z,76.78
2018-03-28T07:58:05.272Z,74.25
2018-03-28T08:00:32.760Z,63.47
2018-03-28T08:03:00.220Z,60.55
2018-03-28T08:05:27.949Z,54.45
2018-03-28T08:07:55.413Z,83.10
2018-03-28T08:10:23.164Z,74.05
2018-03-28T08:12:50.936Z,73.12
2018-03-28T08:15:18.397Z,62.10
2018-03-28T08:17:45.904Z,67.43
2018-03-28T08:20:13.379Z,86.75
2018-03-28T08:22:40.847Z,57.80
2018-03-28T08:25:08.326Z,51.65
2018-03-28T08:27:35.903Z,51.25
2018-03-28T08:30:03.371Z,54.10
2018-03-28T08:32:30.908Z,53.42
2018-03-28T08:34:58.385Z,52.35
2018-03-28T08:37:26.039Z,53.95
2018-03-28T08:39:53.509Z,50.17
2018-03-28T08:42:20.979Z,48.60
2018-03-28T08:44:48.445Z,47.30
2018-03-28T08:47:15.961Z,54.30
2018-03-28T08:49:43.631Z,55.17
2018-03-28T08:52:11.124Z,52.15
2018-03-28T08:54:38.596Z,49.55
2018-03-28T08:57:06.105Z,51.40
2018-03-28T08:59:33.864Z,42.80
2018-03-28T09:02:01.648Z,50.77
2018-03-28T09:04:29.387Z,61.23
2018-03-28T09:06:56.868Z,38.93
2018-03-28T09:09:24.463Z,44.57
2018-03-28T09:11:52.083Z,56.80
2018-03-28T09:14:19.536Z,41.60
2018-03-28T09:16:47.016Z,47.57
2018-03-28T09:19:14.632Z,52.13
2018-03-28T09:21:42.992Z,44.75
2018-03-28T09:24:10.532Z,58.57
2018-03-28T09:26:38.007Z,51.53
2018-03-28T09:29:05.472Z,44.70
2018-03-28T09:31:32.952Z,39.50
2018-03-28T09:34:00.423Z,46.90
2018-03-28T09:36:28.192Z,55.60
2018-03-28T09:38:55.656Z,52.03
2018-03-28T09:41:23.416Z,34.63
2018-03-28T09:43:50.879Z,45.70
2018-03-28T09:46:18.632Z,40.20
2018-03-28T09:48:46.108Z,44.20
2018-03-28T09:51:13.860Z,36.60
2018-03-28T09:53:41.553Z,47.10
2018-03-28T09:56:09.064Z,49.28
2018-03-28T09:58:36.546Z,36.00
2018-03-28T10:01:08.823Z,46.03
2018-03-28T10:03:42.817Z,47.17
2018-03-28T10:06:10.585Z,50.55
2018-03-28T10:08:38.052Z,47.30
2018-03-28T10:11:05.600Z,53.60
2018-03-28T10:13:33.071Z,52.13
2018-03-28T10:16:01.308Z,61.83
2018-03-28T10:18:28.774Z,54.50
2018-03-28T10:20:56.375Z,61.17
2018-03-28T10:23:24.631Z,50.97
2018-03-28T10:25:52.099Z,58.67
2018-03-28T10:28:19.851Z,62.17
2018-03-28T10:30:47.624Z,58.63
2018-03-28T10:33:15.184Z,76.60
2018-03-28T10:35:42.652Z,73.53
2018-03-28T10:38:10.308Z,66.53
2018-03-28T10:40:38.069Z,67.40
2018-03-28T10:43:05.739Z,66.17
2018-03-28T10:45:33.295Z,65.83
2018-03-28T10:48:00.972Z,62.20
2018-03-28T10:50:29.211Z,77.40
2018-03-28T10:52:57.049Z,52.05
2018-03-28T10:55:24.573Z,53.15
2018-03-28T10:57:52.111Z,64.40
2018-03-28T11:00:19.885Z,67.55
2018-03-28T11:02:47.524Z,74.15
2018-03-28T11:05:15.028Z,49.97
2018-03-28T11:07:42.606Z,62.80
2018-03-28T11:10:10.051Z,52.10
2018-03-28T11:12:37.694Z,53.85
2018-03-28T11:15:05.219Z,53.72
2018-03-28T11:17:32.698Z,46.50
2018-03-28T11:20:00.380Z,62.95
2018-03-28T11:22:27.932Z,53.58
2018-03-28T11:24:55.691Z,47.60
2018-03-28T11:27:23.452Z,68.62
2018-03-28T11:29:51.224Z,65.95
2018-03-28T11:32:18.688Z,49.33
2018-03-28T11:34:46.166Z,61.40
2018-03-28T11:37:13.815Z,51.60
2018-03-28T11:39:41.363Z,49.67
2018-03-28T11:42:09.124Z,52.88
2018-03-28T11:44:36.799Z,53.00
2018-03-28T11:47:04.275Z,55.42
2018-03-28T11:49:31.744Z,56.05
2018-03-28T11:51:59.260Z,50.85
2018-03-28T11:54:27.037Z,53.55
2018-03-28T11:56:55.285Z,54.53
2018-03-28T11:59:22.864Z,46.58
2018-03-28T12:01:50.339Z,56.83
2018-03-28T12:04:17.808Z,51.08
2018-03-28T12:06:45.531Z,68.20
2018-03-28T12:09:12.996Z,72.20
2018-03-28T12:11:40.459Z,53.72
2018-03-28T12:14:08.222Z,53.80
2018-03-28T12:16:35.992Z,59.97
2018-03-28T12:19:03.752Z,58.22
2018-03-28T12:21:31.227Z,56.13
2018-03-28T12:23:58.900Z,58.28
2018-03-28T12:26:27.370Z,54.58
2018-03-28T12:28:54.840Z,57.20
2018-03-28T12:31:22.312Z,51.20
2018-03-28T12:33:49.891Z,60.33
2018-03-28T12:36:17.443Z,70.87
2018-03-28T12:38:44.911Z,58.20
2018-03-28T12:41:12.413Z,62.92
2018-03-28T12:43:40.075Z,71.32
2018-03-28T12:46:07.637Z,56.80
2018-03-28T12:48:35.400Z,52.90
2018-03-28T12:51:04.088Z,56.20
2018-03-28T12:53:31.764Z,70.87
2018-03-28T12:55:59.232Z,52.30
2018-03-28T12:58:26.776Z,48.00
2018-03-28T13:00:54.535Z,55.40
2018-03-28T13:03:22.112Z,55.57
2018-03-28T13:05:50.452Z,39.67
2018-03-28T13:08:18.164Z,34.22
2018-03-28T13:10:45.854Z,38.63
2018-03-28T13:13:13.316Z,39.92
2018-03-28T13:15:40.779Z,35.10
2018-03-28T13:18:08.248Z,39.33
2018-03-28T13:20:35.716Z,36.47
2018-03-28T13:23:03.184Z,31.67
2018-03-28T13:25:30.961Z,34.63
2018-03-28T13:27:58.729Z,34.78
2018-03-28T13:30:26.192Z,30.73
2018-03-28T13:32:53.952Z,53.92
2018-03-28T13:35:21.404Z,34.63
2018-03-28T13:37:49.178Z,33.25
2018-03-28T13:40:16.935Z,45.30
2018-03-28T13:42:44.548Z,46.37
2018-03-28T13:45:12.156Z,39.72
2018-03-28T13:47:39.833Z,35.28
2018-03-28T13:50:07.375Z,44.10
2018-03-28T13:52:35.144Z,35.33
2018-03-28T13:55:02.908Z,38.75
2018-03-28T13:57:30.671Z,34.95
2018-03-28T13:59:58.139Z,37.83
2018-03-28T14:02:25.723Z,37.22
2018-03-28T14:04:53.267Z,38.95
2018-03-28T14:07:20.742Z,37.22
2018-03-28T14:09:48.212Z,32.90
2018-03-28T14:12:15.684Z,35.58
2018-03-28T14:14:43.159Z,50.47
2018-03-28T14:17:10.951Z,39.08
2018-03-28T14:19:38.424Z,45.42
2018-03-28T14:22:06.109Z,41.90
2018-03-28T14:24:33.631Z,32.92
2018-03-28T14:27:01.403Z,40.15
2018-03-28T14:29:29.163Z,30.23
2018-03-28T14:31:56.647Z,28.38
2018-03-28T14:34:24.327Z,25.83
2018-03-28T14:36:51.813Z,37.55
2018-03-28T14:39:19.299Z,27.70
2018-03-28T14:41:46.760Z,55.38
2018-03-28T14:44:14.228Z,43.78
2018-03-28T14:46:41.712Z,47.10
2018-03-28T14:49:09.443Z,46.28
2018-03-28T14:51:37.209Z,31.35
2018-03-28T14:54:04.683Z,36.67
2018-03-28T14:56:32.430Z,32.08
2018-03-28T14:59:00.104Z,27.30
2018-03-28T15:01:27.576Z,19.45
2018-03-28T15:03:55.043Z,20.65
2018-03-28T15:06:22.516Z,20.02
2018-03-28T15:08:49.987Z,17.87
2018-03-28T15:11:17.492Z,12.77
2018-03-28T15:13:44.962Z,10.60
2018-03-28T15:16:12.679Z,13.68
2018-03-28T15:18:40.161Z,13.95
2018-03-28T15:21:07.644Z,7.80
2018-03-28T15:23:35.392Z,12.73
2018-03-28T15:26:03.160Z,19.08
2018-03-28T15:28:30.612Z,8.88
2018-03-28T15:30:58.386Z,4.80
2018-03-28T15:33:25.880Z,8.77
2018-03-28T15:35:53.355Z,6.05
2018-03-28T15:38:20.986Z,7.65
2018-03-28T15:40:48.456Z,9.43
2018-03-28T15:43:15.929Z,23.62
2018-03-28T15:45:43.440Z,9.05
2018-03-28T15:48:10.901Z,10.45
2018-03-28T15:50:38.368Z,21.65
2018-03-28T15:53:06.121Z,12.37
2018-03-28T15:55:33.607Z,7.40
2018-03-28T15:58:01.065Z,8.15
2018-03-28T16:00:28.648Z,7.45
2018-03-28T16:02:56.115Z,16.75
2018-03-28T16:05:23.713Z,11.63
2018-03-28T16:07:51.173Z,9.77
2018-03-28T16:10:18.644Z,5.45
2018-03-28T16:12:46.330Z,8.38
2018-03-28T16:15:13.864Z,7.37
2018-03-28T16:17:41.360Z,7.43
2018-03-28T16:20:09.104Z,10.55
2018-03-28T16:22:36.604Z,14.82
2018-03-28T16:25:04.296Z,10.00
2018-03-28T16:27:32.060Z,10.52
2018-03-28T16:29:59.536Z,7.45
2018-03-28T16:32:27.208Z,7.07
2018-03-28T16:34:54.672Z,9.52
2018-03-28T16:37:22.132Z,9.20
2018-03-28T16:39:49.664Z,12.93
2018-03-28T16:42:17.124Z,12.60
2018-03-28T16:44:44.587Z,18.17
2018-03-28T16:47:12.360Z,10.35
2018-03-28T16:49:39.815Z,16.62
2018-03-28T16:52:07.563Z,27.27
2018-03-28T16:54:35.244Z,31.95
2018-03-28T16:57:02.783Z,27.80
2018-03-28T16:59:30.253Z,17.12
2018-03-28T17:01:57.832Z,12.82
2018-03-28T17:04:26.060Z,10.73
2018-03-28T17:06:53.531Z,7.40
2018-03-28T17:09:21.003Z,11.80
2018-03-28T17:11:48.459Z,8.88
2018-03-28T17:14:16.135Z,7.95
2018-03-28T17:16:43.641Z,7.65
2018-03-28T17:19:11.449Z,16.15
2018-03-28T17:21:39.213Z,5.90
2018-03-28T17:24:06.675Z,14.93
2018-03-28T17:26:34.655Z,7.80
2018-03-28T17:29:02.203Z,27.75
2018-03-28T17:31:29.673Z,10.52
2018-03-28T17:33:57.420Z,11.23
2018-03-28T17:36:24.887Z,11.85
2018-03-28T17:38:53.856Z,7.57
2018-03-28T17:41:21.631Z,25.15
2018-03-28T17:43:49.099Z,10.35
2018-03-28T17:46:16.560Z,10.23
2018-03-28T17:48:44.227Z,7.05
2018-03-28T17:51:12.080Z,7.78
2018-03-28T17:53:39.756Z,20.60
2018-03-28T17:56:07.208Z,7.47
2018-03-28T17:58:34.762Z,14.70
2018-03-28T18:01:02.214Z,14.32
2018-03-28T18:03:29.679Z,13.25
2018-03-28T18:05:57.142Z,10.75
2018-03-28T18:08:24.823Z,12.40
2018-03-28T18:10:52.283Z,17.60
2018-03-28T18:13:19.745Z,10.57
2018-03-28T18:15:47.203Z,29.02
2018-03-28T18:18:14.741Z,16.58
2018-03-28T18:20:42.507Z,14.35
2018-03-28T18:23:10.178Z,17.55
2018-03-28T18:25:37.719Z,19.15
2018-03-28T18:28:05.183Z,16.12
2018-03-28T18:30:32.783Z,20.67
2018-03-28T18:33:00.496Z,13.57
2018-03-28T18:35:27.953Z,9.90
2018-03-28T18:37:55.424Z,22.05
2018-03-28T18:40:23.088Z,16.77
2018-03-28T18:42:50.559Z,13.52
2018-03-28T18:45:18.026Z,16.67
2018-03-28T18:47:45.839Z,15.35
2018-03-28T18:50:13.532Z,21.42
2018-03-28T18:52:40.997Z,14.15
2018-03-28T18:55:08.763Z,17.98
2018-03-28T18:57:36.226Z,26.17
2018-03-28T19:00:03.687Z,21.23
2018-03-28T19:02:31.377Z,23.62
2018-03-28T19:04:58.837Z,24.50
2018-03-28T19:07:26.392Z,18.45
2018-03-28T19:09:54.111Z,24.80
2018-03-28T19:12:21.880Z,31.25
2018-03-28T19:14:50.260Z,20.67
2018-03-28T19:17:17.724Z,23.00
2018-03-28T19:19:45.237Z,16.40
2018-03-28T19:22:12.940Z,10.95
2018-03-28T19:24:40.405Z,18.02
2018-03-28T19:27:08.164Z,11.85
2018-03-28T19:29:35.640Z,12.35
2018-03-28T19:32:03.303Z,8.50
2018-03-28T19:34:30.847Z,13.75
2018-03-28T19:36:58.304Z,9.85
2018-03-28T19:39:26.069Z,5.62
2018-03-28T19:41:53.870Z,4.93
2018-03-28T19:44:21.599Z,7.82
2018-03-28T19:46:49.048Z,2.45
2018-03-28T19:49:16.514Z,3.83
2018-03-28T19:51:43.976Z,5.10
2018-03-28T19:54:11.428Z,3.65
2018-03-28T19:56:38.886Z,7.97
2018-03-28T19:59:06.351Z,5.32
2018-03-28T20:01:34.012Z,4.43
2018-03-28T20:04:01.472Z,8.07
2018-03-28T20:06:28.931Z,5.65
2018-03-28T20:08:56.399Z,8.02
2018-03-28T20:11:23.858Z,7.40
2018-03-28T20:13:52.078Z,7.05
2018-03-28T20:16:19.536Z,7.95
2018-03-28T20:18:47.240Z,9.18
2018-03-28T20:21:14.706Z,12.43
2018-03-28T20:23:42.460Z,10.13
2018-03-28T20:26:09.928Z,11.98
2018-03-28T20:28:37.398Z,11.23
2018-03-28T20:31:04.884Z,11.12
2018-03-28T20:33:32.606Z,12.95
2018-03-28T20:36:00.070Z,13.10
2018-03-28T20:38:27.536Z,10.35
2018-03-28T20:40:55.280Z,13.82
2018-03-28T20:43:22.745Z,12.00
2018-03-28T20:45:50.208Z,14.35
2018-03-28T20:48:17.968Z,12.07
2018-03-28T20:50:45.474Z,14.13
2018-03-28T20:53:12.940Z,15.45
2018-03-28T20:55:40.644Z,10.98
2018-03-28T20:58:08.100Z,11.55
2018-03-28T21:00:35.789Z,13.38
2018-03-28T21:03:03.323Z,9.73
2018-03-28T21:05:30.787Z,9.93
2018-03-28T21:07:58.543Z,10.57
2018-03-28T21:10:26.003Z,9.50
2018-03-28T21:12:53.451Z,8.98
2018-03-28T21:15:20.911Z,10.27
2018-03-28T21:17:48.691Z,10.05
2018-03-28T21:20:16.449Z,7.20
2018-03-28T21:22:43.903Z,7.37
2018-03-28T21:25:11.676Z,8.98
2018-03-28T21:27:39.128Z,6.65
2018-03-28T21:30:06.580Z,7.40
2018-03-28T21:32:34.238Z,8.80
2018-03-28T21:35:01.816Z,10.63
2018-03-28T21:37:29.278Z,6.20
2018-03-28T21:39:56.952Z,8.60
2018-03-28T21:42:24.487Z,6.25
2018-03-28T21:44:52.109Z,8.30
2018-03-28T21:47:19.723Z,6.55
2018-03-28T21:49:47.169Z,6.47
2018-03-28T21:52:14.945Z,5.57
2018-03-28T21:54:42.704Z,8.00
2018-03-28T21:57:10.157Z,5.57
2018-03-28T21:59:37.627Z,13.23
2018-03-28T22:02:05.389Z,7.47
2018-03-28T22:04:32.855Z,8.90
2018-03-28T22:07:00.316Z,6.85
2018-03-28T22:09:27.764Z,5.68
2018-03-28T22:11:55.230Z,5.62
2018-03-28T22:14:22.991Z,5.90
2018-03-28T22:16:50.452Z,4.75
2018-03-28T22:19:17.903Z,6.22
2018-03-28T22:21:45.364Z,7.80
2018-03-28T22:24:12.860Z,6.57
2018-03-28T22:26:40.313Z,6.50
2018-03-28T22:29:07.778Z,6.30
2018-03-28T22:31:35.499Z,6.82
2018-03-28T22:34:02.952Z,5.10
2018-03-28T22:36:30.408Z,4.30
2018-03-28T22:38:58.190Z,4.20
2018-03-28T22:41:25.652Z,6.55
2018-03-28T22:43:53.942Z,7.93
2018-03-28T22:46:22.157Z,11.07
2018-03-28T22:48:49.853Z,7.35
2018-03-28T22:51:17.321Z,4.50
2018-03-28T22:53:45.068Z,3.97
2018-03-28T22:56:12.842Z,4.12
2018-03-28T22:58:40.285Z,5.50
2018-03-28T23:01:07.804Z,7.22
2018-03-28T23:03:35.678Z,4.97
2018-03-28T23:06:03.272Z,6.80
2018-03-28T23:08:30.936Z,7.28
2018-03-28T23:10:58.408Z,7.95
2018-03-28T23:13:25.853Z,6.68
2018-03-28T23:15:53.410Z,5.00
2018-03-28T23:18:20.857Z,6.82
2018-03-28T23:20:48.302Z,7.40
2018-03-28T23:23:15.758Z,8.10
2018-03-28T23:25:43.212Z,6.40
2018-03-28T23:28:10.681Z,5.53
2018-03-28T23:30:38.144Z,7.47
2018-03-28T23:33:05.603Z,6.30
2018-03-28T23:35:33.100Z,8.00
2018-03-28T23:38:00.555Z,6.15
2018-03-28T23:40:28.316Z,5.68
2018-03-28T23:42:56.076Z,9.15
2018-03-28T23:45:23.552Z,10.13
2018-03-28T23:47:51.133Z,10.13
2018-03-28T23:50:18.756Z,10.75
2018-03-28T23:52:46.251Z,9.60
2018-03-28T23:55:14.064Z,9.90
2018-03-28T23:57:41.755Z,11.20
